Weather at N 208 Helipad

Public forecast

Using degrees Celsius for public forecast. Weather courtesy of forecast.io.

Closest aviation weather report (METAR) to N 208 Helipad

Closest report is Incheon International Airport, 85.2 nm (157.7 km) ESE. Retrieved 2020/10/30 04:30 UTC (0 seconds ago):

RKSI 300430Z 34002KT CAVOK 17/M01 Q1025 NOSIG

Closest aviation forecast (TAF) to N 208 Helipad

Closest forecast is Incheon International Airport, 85.2 nm (157.7 km) ESE. Retrieved 2020-10-30 00:00 UTC (4 hours ago):

TAF RKSI 292300Z 3000/3106 07007KT CAVOK TX17/3005Z TN08/3016Z TX17/3106Z BECMG 3004/3005 33007KT BECMG 3010/3011 07007KT BECMG 3016/3017 13010KT 9999 SCT030 BKN150 BECMG 3101/3102 19010KT BECMG 3103/3104 BKN025 BKN100